Pagina principală
METAR-TAF:

METAR-TAF

Aeroporturi :

Peace River, Alberta, Canada

Latitudine: 56-14N, longitudine: 117-26W, elevație: 571 m

Observații meteo curente

Raportul a fost făcut în urmă cu 1 oră și 12 de minute, la 19:00 UTC
Vânt 6 kt de la Sud-vest, variabil între Sud și Vest
Temperatură 24°C
Umiditate 36%
Presiune 1015 hPa
Vizibilitate: 24.1 km
Cer senin

METAR: CYPE 211900Z 22006KT 170V270 15SM SKC 24/08 A2997 RMK SLP157 DENSITY ALT 3300FT

Ora: 14:12 (20:12 UTC)

Prognoză

Raportul a fost făcut în urmă cu 1 oră și 32 de minute, la 18:40 UTC
Prognoză valabilă de la 21 ora 19 UTC la 22 ora 07 UTC
Vânt 6 kt de la Sud/Sud-est
Vizibilitate: 10 km
Cer senin
Devenind
de la 21 ora 20 UTC la 21 ora 22 UTC
Vânt 10 kt de la Vest/Sud-vest
Devenind
de la 22 ora 05 UTC la 22 ora 07 UTC
Vânt 3 kt din direcții variabile

TAF: CYPE 211840Z 2119/2207 16006KT P6SM SKC BECMG 2120/2122 24010KT BECMG 2205/2207 VRB03KT RMK NXT FCST BY 220100Z

Observații și prognoze meteo pentru peste 4.000 de aeroporturi (rapoarte METAR și TAF).

Stațiile disponibile sunt reprezentate pe hartă prin puncte galbene și roșii.

Țineți indicatorul mouse-ului pe punctul dorit pentru a vedea denumirea stației.

Apoi, faceți clic pentru a vedea observațiile și prognozele meteorologice.

Pentru a schimba harta: Pentru mărire, faceți clic pe butoanele verzi cu cruce neagră; pentru micșorare, pe butonul verde cu o liniuță; pentru hărți învecinate, pe săgețile verzi.


METAR-TAF: